Carmo, Brazil
Current Conditions -  °F | °C
As of 8:00 PM on Thursday 20 Nov 2014 (Local Time) from SBME Reporting Station
Clear Clear  
Wind Chill: 75°   Ceiling: Unl
Heat Index: 75°   Visibility: 6mi
Dew Point: 64°   Wind: 10mph
Humidity: 69%   Direction: 90°E
Pressure: 30"   Gusts: NA
Location:  21.93°S, 42.61°W
Report Text: SBME 202200Z 09009KT CAVOK 24/18 Q1016
Loading
Personal Weather Stations






























Interactive Weather Map New forecast layout! Learn more

10-Day Weather Forecast

Advertisements
Track Severe Weather on mobile